Aburatsu, Japan

7:01 AM JST on July 04, 2015 (GMT +0900)
Miyazaki | | Change Station
CLOSE
Current Station
Airport
Location: Miyazaki Airport,
Elevation: 26 ft
Nearby Weather Stations

Elev 26 ft 31.88 °N, 131.45 °E | Updated 51 minutes ago

Light Rain
Light Rain Mist
68 °F
Feels Like 68 °F
N
6
Wind Variable Wind from NNW

Today
High -- | Low -- °F
--% Chance of Precip.
Yesterday
High -- | Low -- °F
Precip. -- in
5:13 AM 7:23 PM
Waning Gibbous, 96% visible
Pressure 29.77 in
Visibility 3.1 miles
Clouds Few 500 ft
Scattered Clouds 1500 ft
Mostly Cloudy 9000 ft
Dew Point 68 °F
Humidity 100%
Rainfall 0.00 in
Snow Depth Not available.
UV 0 out of 12
Pollen Not available.
Air Quality Not available.
Flu Activity Not available.
SPECI RJFM 032110Z 33005KT 5000 -RA BR FEW005 SCT015 BKN090 20/20 Q1008 RMK 1ST005 3CU015 5AC090 A2977

More Conditions Fewer Conditions

Pressure 29.77 in
Visibility 3.1 miles
Clouds Few 500 ft
Scattered Clouds 1500 ft
Mostly Cloudy 9000 ft
Dew Point 68 °F
Humidity 100%
Rainfall 0.00 in
Snow Depth Not available.
UV 0 out of 12
Pollen Not available.
Air Quality Not available.
Flu Activity Not available.
SPECI RJFM 032110Z 33005KT 5000 -RA BR FEW005 SCT015 BKN090 20/20 Q1008 RMK 1ST005 3CU015 5AC090 A2977

More Conditions Fewer Conditions

10-Day Weather Forecast

×

Almanac

Astronomy

Jul. 04, 2015 Rise Set
Actual Time
Civil Twilight
Nautical Twilight
Astronomical Twilight
Moon
Length of Visible Light
Length of Day
Tomorrow will be .
, % of the Moon is Illuminated

Today's Extremes

Country Highs Country Lows

Community

WunderPhotos

Upload Photos

1,834,789 photos uploaded!

WunderBlogs® & News

Nearby

Air Quality

  Air Quality AQ Index Pollutant
Not available.

Snow Depth

Station Depth Elevation

Earthquake Activity

City Distance Mag. Time & Date
Minimum magnitude displayed is 2.5.

Coastal Water Temperatures

Place Temperature

Stations

Nearby Weather Stations

Station Location Temp. Windchill Dew Point Humidity Wind Precip. Elev Updated Type